Time;durP1;ratioP1;P1;durP2;ratioP2;P2;SDS_P1;SDS_P2;PMS_P1;PMS_P2;Temp;Humidity;BMP_temperature;BMP_pressure;BME280_temperature;BME280_humidity;BME280_pressure;Samples;Min_cycle;Max_cycle;Signal;HPM_P1;HPM_P2
2021/04/11 00:02:03;;;;;;;1.75;1.55;;;3.20;99.90;;;;;;5071821;28;20333;-69
2021/04/11 00:04:29;;;;;;;2.25;1.70;;;3.20;99.90;;;;;;5072096;28;20468;-70
2021/04/11 00:06:55;;;;;;;2.15;1.80;;;3.20;99.90;;;;;;5071087;28;20141;-69
2021/04/11 00:09:20;;;;;;;1.70;1.60;;;3.20;99.90;;;;;;5071545;28;20357;-69
2021/04/11 00:11:46;;;;;;;2.45;2.13;;;3.20;99.90;;;;;;5071771;28;20025;-69
2021/04/11 00:14:11;;;;;;;2.22;1.90;;;3.20;99.90;;;;;;5070949;28;20368;-69
2021/04/11 00:16:37;;;;;;;2.20;2.00;;;3.20;99.90;;;;;;5071727;28;20070;-69
2021/04/11 00:19:03;;;;;;;2.35;2.15;;;3.20;99.90;;;;;;5071597;28;20036;-69
2021/04/11 00:21:28;;;;;;;2.17;1.95;;;3.30;99.90;;;;;;5071151;28;20020;-69
2021/04/11 00:23:54;;;;;;;2.30;2.10;;;3.20;99.90;;;;;;5071590;28;20062;-69
2021/04/11 00:26:19;;;;;;;2.47;2.03;;;3.30;99.90;;;;;;5071306;28;20023;-70
2021/04/11 00:28:45;;;;;;;2.75;2.47;;;3.30;99.90;;;;;;5070943;28;20036;-69
2021/04/11 00:31:11;;;;;;;2.88;2.53;;;3.30;99.90;;;;;;5071381;28;20017;-69
2021/04/11 00:33:43;;;;;;;2.80;2.60;;;3.30;99.90;;;;;;5070279;28;20021;-69
2021/04/11 00:36:12;;;;;;;3.92;2.17;;;3.30;99.90;;;;;;5067435;28;20539;-69
2021/04/11 00:38:37;;;;;;;4.10;3.30;;;3.30;99.90;;;;;;5051522;28;20028;-69
2021/04/11 00:41:30;;;;;;;3.78;1.95;;;3.30;99.90;;;;;;5054230;28;20439;-70
2021/04/11 00:43:57;;;;;;;2.72;2.45;;;3.30;99.90;;;;;;5070408;28;20032;-70
2021/04/11 00:46:43;;;;;;;4.50;3.33;;;3.30;99.90;;;;;;5071204;28;20029;-70
2021/04/11 00:49:20;;;;;;;5.63;2.92;;;3.30;99.90;;;;;;5070440;28;20075;-70
2021/04/11 00:51:46;;;;;;;3.15;2.80;;;3.30;99.90;;;;;;5071700;28;20421;-70
2021/04/11 00:54:12;;;;;;;3.25;2.95;;;3.40;99.90;;;;;;5071261;28;20043;-69
2021/04/11 00:56:41;;;;;;;3.47;3.17;;;3.40;99.90;;;;;;5070616;28;20461;-69
2021/04/11 00:59:08;;;;;;;3.30;3.00;;;3.30;99.90;;;;;;5071163;28;20111;-69
2021/04/11 01:01:41;;;;;;;6.18;3.20;;;3.40;99.90;;;;;;5068627;28;20528;-69
2021/04/11 01:04:13;;;;;;;4.07;3.15;;;4.00;99.90;;;;;;5060889;28;20473;-69
2021/04/11 01:06:42;;;;;;;4.15;3.10;;;3.40;99.90;;;;;;5071256;28;20107;-69
2021/04/11 01:09:14;;;;;;;4.35;2.65;;;3.30;99.90;;;;;;5070381;28;20044;-69
2021/04/11 01:11:40;;;;;;;4.18;3.03;;;3.40;99.90;;;;;;5071108;28;20114;-69
2021/04/11 01:14:07;;;;;;;5.25;3.47;;;3.40;99.90;;;;;;5071051;28;20060;-69
2021/04/11 01:16:35;;;;;;;3.88;3.35;;;3.40;99.90;;;;;;5070891;28;20087;-70
2021/04/11 01:19:00;;;;;;;4.95;3.28;;;3.30;99.90;;;;;;5071133;28;20481;-70
2021/04/11 01:21:32;;;;;;;3.40;3.08;;;3.30;99.90;;;;;;5071334;28;20048;-70
2021/04/11 01:24:12;;;;;;;3.05;2.75;;;3.30;99.90;;;;;;5070868;28;20074;-70
2021/04/11 01:26:39;;;;;;;6.80;2.50;;;3.30;99.90;;;;;;5071614;28;20036;-70
2021/04/11 01:29:06;;;;;;;5.28;2.72;;;3.30;99.90;;;;;;5071003;28;20099;-70
2021/04/11 01:31:33;;;;;;;2.47;2.28;;;3.30;99.90;;;;;;5070967;28;20021;-69
2021/04/11 01:33:59;;;;;;;3.08;2.20;;;3.30;99.90;;;;;;5071129;28;20027;-69
2021/04/11 01:36:28;;;;;;;2.80;2.50;;;3.30;99.90;;;;;;5071013;28;20069;-70
2021/04/11 01:38:54;;;;;;;2.13;1.88;;;3.30;99.90;;;;;;5070033;28;20024;-70
2021/04/11 01:41:34;;;;;;;4.75;2.42;;;3.20;99.90;;;;;;5070564;28;20024;-69
2021/04/11 01:44:01;;;;;;;2.78;2.58;;;3.30;99.90;;;;;;5070212;28;20020;-69
2021/04/11 01:46:27;;;;;;;3.08;2.78;;;3.30;99.90;;;;;;5073535;28;20484;-70
2021/04/11 01:48:54;;;;;;;4.13;2.75;;;3.20;99.90;;;;;;5074510;28;20561;-70
2021/04/11 01:51:24;;;;;;;1.90;1.80;;;3.20;99.90;;;;;;5073412;28;20025;-69
2021/04/11 01:53:51;;;;;;;3.03;2.70;;;3.20;99.90;;;;;;5074651;28;20040;-69
2021/04/11 01:56:18;;;;;;;4.00;3.10;;;3.20;99.90;;;;;;5074217;28;20107;-68
2021/04/11 01:58:43;;;;;;;3.47;3.05;;;3.20;99.90;;;;;;5073603;28;20024;-70
2021/04/11 02:01:26;;;;;;;3.50;2.70;;;3.20;99.90;;;;;;5074168;28;20032;-70
2021/04/11 02:04:00;;;;;;;4.38;2.80;;;3.20;99.90;;;;;;5074261;28;20476;-69
2021/04/11 02:06:27;;;;;;;3.85;2.00;;;3.20;99.90;;;;;;5072930;28;20012;-69
2021/04/11 02:08:56;;;;;;;3.58;2.45;;;3.20;99.90;;;;;;5073951;28;20036;-70
2021/04/11 02:11:22;;;;;;;2.85;2.40;;;3.20;99.90;;;;;;5073843;28;20051;-69
2021/04/11 02:13:47;;;;;;;2.38;2.17;;;3.10;99.90;;;;;;5073590;28;20108;-69
2021/04/11 02:16:16;;;;;;;2.92;2.30;;;3.10;99.90;;;;;;5073700;28;20502;-70
2021/04/11 02:18:42;;;;;;;2.50;2.00;;;3.10;99.90;;;;;;5074064;28;20021;-70
2021/04/11 02:21:16;;;;;;;2.00;1.88;;;3.10;99.90;;;;;;5073073;28;20021;-70
2021/04/11 02:23:42;;;;;;;2.38;2.00;;;3.10;99.90;;;;;;5074478;28;20029;-69
2021/04/11 02:26:10;;;;;;;4.88;1.98;;;3.20;99.90;;;;;;5072986;28;20111;-69
2021/04/11 02:28:36;;;;;;;3.60;2.08;;;3.20;99.90;;;;;;5073629;28;20039;-69
2021/04/11 02:31:18;;;;;;;2.13;1.90;;;3.20;99.90;;;;;;5073686;28;20024;-69
2021/04/11 02:33:47;;;;;;;5.53;2.40;;;3.20;99.90;;;;;;5058726;28;20531;-69
2021/04/11 02:36:13;;;;;;;5.22;2.10;;;3.20;99.90;;;;;;5073232;28;20417;-69
2021/04/11 02:38:39;;;;;;;2.72;1.73;;;3.10;99.90;;;;;;5073443;28;20040;-69
2021/04/11 02:41:04;;;;;;;2.10;1.80;;;3.20;99.90;;;;;;5072693;28;20028;-71
2021/04/11 02:43:32;;;;;;;3.10;1.88;;;3.10;99.90;;;;;;5073430;28;20480;-69
2021/04/11 02:45:57;;;;;;;4.22;1.55;;;3.10;99.90;;;;;;5073440;28;20020;-69
2021/04/11 02:48:23;;;;;;;2.10;1.55;;;3.10;99.90;;;;;;5072360;28;20038;-69
2021/04/11 02:50:49;;;;;;;3.72;1.80;;;3.10;99.90;;;;;;5073257;28;20032;-69
2021/04/11 02:53:18;;;;;;;3.15;2.17;;;3.10;99.90;;;;;;5073148;28;20528;-69
2021/04/11 02:55:44;;;;;;;3.60;1.42;;;3.00;99.90;;;;;;5072608;28;20055;-69
2021/04/11 02:58:12;;;;;;;2.60;1.73;;;3.00;99.90;;;;;;5072127;28;20025;-68
2021/04/11 03:00:45;;;;;;;2.60;2.40;;;3.00;99.90;;;;;;5073292;28;20025;-68
2021/04/11 03:03:11;;;;;;;2.92;2.20;;;3.00;99.90;;;;;;5072208;28;20028;-70
2021/04/11 03:05:37;;;;;;;5.20;2.75;;;3.00;99.90;;;;;;5073131;28;20032;-69
2021/04/11 03:08:10;;;;;;;2.00;1.83;;;3.00;99.90;;;;;;5072710;28;20400;-70
2021/04/11 03:11:08;;;;;;;3.63;2.08;;;3.00;99.90;;;;;;5072349;28;20036;-69
2021/04/11 03:13:35;;;;;;;4.68;2.35;;;2.90;99.90;;;;;;5025383;28;20040;-70
2021/04/11 03:16:01;;;;;;;2.50;2.30;;;2.90;99.90;;;;;;5072343;28;20032;-70
2021/04/11 03:18:28;;;;;;;4.03;2.35;;;2.90;99.90;;;;;;5072325;28;20031;-70
2021/04/11 03:20:56;;;;;;;3.80;2.55;;;2.90;99.90;;;;;;5072883;28;20020;-70
2021/04/11 03:23:22;;;;;;;4.95;2.40;;;2.90;99.90;;;;;;5071359;28;20032;-70
2021/04/11 03:25:55;;;;;;;5.20;2.47;;;2.90;99.90;;;;;;5072836;28;20465;-68
2021/04/11 03:28:30;;;;;;;5.10;2.00;;;2.90;99.90;;;;;;5072399;28;20074;-69
2021/04/11 03:31:10;;;;;;;4.13;2.17;;;2.90;99.90;;;;;;5072157;28;20024;-69
2021/04/11 03:33:42;;;;;;;5.47;2.50;;;2.90;99.90;;;;;;5058481;28;20392;-69
2021/04/11 03:36:11;;;;;;;6.20;2.00;;;2.80;99.90;;;;;;5072497;28;20025;-69
2021/04/11 03:38:39;;;;;;;2.92;1.65;;;2.90;99.90;;;;;;5071814;28;20455;-69
2021/04/11 03:41:05;;;;;;;4.05;1.88;;;2.90;99.90;;;;;;5072302;28;20028;-69
2021/04/11 03:43:40;;;;;;;5.30;2.17;;;2.90;99.90;;;;;;5071492;28;20111;-70
2021/04/11 03:46:17;;;;;;;5.43;2.28;;;2.90;99.90;;;;;;5071962;28;20016;-68
2021/04/11 03:49:23;;;;;;;5.90;1.90;;;2.90;99.90;;;;;;5072365;28;20048;-69
2021/04/11 03:51:52;;;;;;;3.95;1.77;;;2.90;99.90;;;;;;5071538;28;20492;-69
2021/04/11 03:54:29;;;;;;;2.42;1.98;;;2.90;99.90;;;;;;5071518;28;20068;-68
2021/04/11 03:57:07;;;;;;;5.25;2.40;;;2.90;99.90;;;;;;5072253;28;20563;-69
2021/04/11 03:59:39;;;;;;;7.90;1.77;;;2.90;99.90;;;;;;5068555;28;20028;-69
2021/04/11 04:02:06;;;;;;;2.63;1.90;;;2.90;99.90;;;;;;5061130;28;20435;-69
2021/04/11 04:04:33;;;;;;;2.08;1.90;;;2.90;99.90;;;;;;5071541;28;20104;-69
2021/04/11 04:07:25;;;;;;;2.65;1.85;;;2.90;99.90;;;;;;5071698;28;20048;-69
2021/04/11 04:09:56;;;;;;;4.97;2.55;;;2.90;99.90;;;;;;5066740;28;20564;-70
2021/04/11 04:12:43;;;;;;;3.60;2.25;;;3.00;99.90;;;;;;5071434;28;20093;-68
2021/04/11 04:15:13;;;;;;;2.10;1.85;;;2.90;99.90;;;;;;5048708;28;20094;-70
2021/04/11 04:18:03;;;;;;;6.10;2.33;;;2.90;99.90;;;;;;5045598;28;20377;-68
2021/04/11 04:21:02;;;;;;;3.97;1.95;;;2.90;99.90;;;;;;5058281;28;20032;-70
2021/04/11 04:24:01;;;;;;;4.05;1.88;;;2.90;99.90;;;;;;5071359;28;20023;-70
2021/04/11 04:26:56;;;;;;;3.75;2.08;;;3.00;99.90;;;;;;5070608;28;20016;-69
2021/04/11 04:29:27;;;;;;;3.38;2.03;;;3.00;99.90;;;;;;5071404;28;20075;-69
2021/04/11 04:32:23;;;;;;;6.45;1.90;;;3.00;99.90;;;;;;5068919;28;20032;-69
2021/04/11 04:35:00;;;;;;;5.90;1.92;;;3.00;99.90;;;;;;5064042;28;20384;-69
2021/04/11 04:37:51;;;;;;;7.07;2.22;;;2.90;99.90;;;;;;5071528;28;20107;-69
2021/04/11 04:40:40;;;;;;;;;;;3.00;99.90;;;;;;5070913;28;20024;-69
2021/04/11 04:43:23;;;;;;;9.50;1.75;;;3.00;99.90;;;;;;5071534;28;20245;-71
2021/04/11 04:46:02;;;;;;;6.97;1.73;;;3.00;99.90;;;;;;5071210;28;20537;-69
2021/04/11 04:48:36;;;;;;;6.43;2.33;;;3.00;99.90;;;;;;5070451;28;20025;-69
2021/04/11 04:51:12;;;;;;;8.85;1.90;;;3.00;99.90;;;;;;5071095;28;20021;-70
2021/04/11 04:53:42;;;;;;;5.78;2.35;;;3.00;99.90;;;;;;5071125;28;20105;-69
2021/04/11 04:56:14;;;;;;;4.20;1.67;;;3.00;99.90;;;;;;5069996;28;20024;-69
2021/04/11 04:58:44;;;;;;;7.63;2.35;;;2.90;99.90;;;;;;5071375;28;20024;-68
2021/04/11 05:01:16;;;;;;;5.10;1.77;;;3.00;99.90;;;;;;5070041;28;20029;-69
2021/04/11 05:03:46;;;;;;;2.30;1.85;;;3.00;99.90;;;;;;5071268;28;20067;-69
2021/04/11 05:06:19;;;;;;;8.43;2.00;;;2.90;99.90;;;;;;5071307;28;20379;-69
2021/04/11 05:08:48;;;;;;;3.60;1.77;;;3.00;99.90;;;;;;5070403;28;20298;-68
2021/04/11 05:11:13;;;;;;;2.80;1.73;;;3.00;99.90;;;;;;5070909;28;20074;-69
2021/04/11 05:13:49;;;;;;;5.93;2.20;;;3.00;99.90;;;;;;5071257;28;20119;-69
2021/04/11 05:16:26;;;;;;;5.18;2.15;;;2.90;99.90;;;;;;5070209;28;20174;-69
2021/04/11 05:19:12;;;;;;;1.92;1.25;;;2.90;99.90;;;;;;5071270;28;20544;-69
2021/04/11 05:21:43;;;;;;;5.07;2.25;;;2.90;99.90;;;;;;5073243;28;20106;-69
2021/04/11 05:24:17;;;;;;;7.03;1.40;;;2.90;99.90;;;;;;5072191;28;20078;-69
2021/04/11 05:27:09;;;;;;;6.18;1.67;;;2.90;99.90;;;;;;5072860;28;20027;-70
2021/04/11 05:29:45;;;;;;;8.65;2.08;;;2.90;99.90;;;;;;5072555;28;20033;-70
2021/04/11 05:32:15;;;;;;;6.45;1.63;;;2.90;99.90;;;;;;5072304;28;20100;-68
2021/04/11 05:34:41;;;;;;;3.15;1.85;;;2.90;99.90;;;;;;5073905;28;20024;-69
2021/04/11 05:37:28;;;;;;;7.53;1.70;;;2.90;99.90;;;;;;5072928;28;20036;-69
2021/04/11 05:40:18;;;;;;;5.22;1.45;;;2.90;99.90;;;;;;5073705;28;20384;-69
2021/04/11 05:43:05;;;;;;;6.43;1.30;;;2.90;99.90;;;;;;5062643;28;20032;-70
2021/04/11 05:45:54;;;;;;;4.28;1.67;;;2.90;99.90;;;;;;5073737;28;20021;-69
2021/04/11 05:48:43;;;;;;;8.23;1.73;;;3.00;99.90;;;;;;5071974;28;20106;-69
2021/04/11 05:51:17;;;;;;;7.70;3.30;;;3.00;99.90;;;;;;5073208;28;20028;-69
2021/04/11 05:53:51;;;;;;;4.78;1.20;;;3.00;99.90;;;;;;5074502;28;20423;-68
2021/04/11 05:56:22;;;;;;;3.83;1.70;;;3.00;99.90;;;;;;5073506;28;20128;-69
2021/04/11 05:58:56;;;;;;;6.45;1.13;;;3.00;99.90;;;;;;5073175;28;20021;-68
2021/04/11 06:01:28;;;;;;;5.07;2.38;;;3.10;99.90;;;;;;5073280;28;20032;-70
2021/04/11 06:04:11;;;;;;;4.45;1.67;;;3.10;99.90;;;;;;5073825;28;20135;-68
2021/04/11 06:06:49;;;;;;;10.25;1.52;;;3.20;99.90;;;;;;5073526;28;20056;-68
2021/04/11 06:09:34;;;;;;;6.10;1.40;;;3.10;99.90;;;;;;5066239;28;20127;-68
2021/04/11 06:12:06;;;;;;;7.05;1.30;;;3.10;99.90;;;;;;5069487;28;20108;-69
2021/04/11 06:14:51;;;;;;;9.68;1.20;;;3.20;99.90;;;;;;5073906;28;20025;-68
2021/04/11 06:17:17;;;;;;;3.10;1.73;;;3.20;99.90;;;;;;5073551;28;20024;-69
2021/04/11 06:19:45;;;;;;;2.78;1.20;;;3.20;99.90;;;;;;5073114;28;20037;-68
2021/04/11 06:22:28;;;;;;;2.35;1.23;;;3.20;99.90;;;;;;5073348;28;20059;-69
2021/04/11 06:25:23;;;;;;;3.05;1.30;;;3.20;99.90;;;;;;5073893;28;20020;-69
2021/04/11 06:28:01;;;;;;;3.60;1.58;;;3.30;99.90;;;;;;5065136;28;20036;-69
2021/04/11 06:30:48;;;;;;;10.82;1.48;;;3.30;99.90;;;;;;5073342;28;20075;-69
2021/04/11 06:33:30;;;;;;;1.83;0.60;;;3.30;99.90;;;;;;5065979;28;20028;-69
2021/04/11 06:36:00;;;;;;;3.85;1.30;;;3.30;99.90;;;;;;5073603;28;20487;-70
2021/04/11 06:38:31;;;;;;;10.63;1.98;;;3.30;99.90;;;;;;5073749;28;20069;-69
2021/04/11 06:41:31;;;;;;;3.95;1.58;;;3.30;99.90;;;;;;5072913;28;20039;-70
2021/04/11 06:44:12;;;;;;;;;;;3.40;99.90;;;;;;5038311;28;20021;-69
2021/04/11 06:47:09;;;;;;;3.58;1.50;;;3.40;99.90;;;;;;5073098;28;20447;-68
2021/04/11 06:49:51;;;;;;;4.50;1.27;;;3.50;99.90;;;;;;5051340;28;20149;-69
2021/04/11 06:52:27;;;;;;;7.43;1.40;;;3.50;99.90;;;;;;5066007;28;20361;-69
2021/04/11 06:55:18;;;;;;;3.63;1.67;;;3.60;99.90;;;;;;5072929;28;20025;-69
2021/04/11 06:57:52;;;;;;;3.65;1.48;;;3.60;99.90;;;;;;5073542;28;20082;-68
2021/04/11 07:00:54;;;;;;;3.45;1.42;;;3.80;99.90;;;;;;5072753;28;20540;-69
2021/04/11 07:03:52;;;;;;;5.90;1.40;;;3.80;99.90;;;;;;5063968;28;20079;-68
2021/04/11 07:07:08;;;;;;;2.17;1.30;;;3.80;99.90;;;;;;5068822;28;20024;-69
2021/04/11 07:10:01;;;;;;;5.22;1.30;;;3.90;99.90;;;;;;5026305;28;20499;-72
2021/04/11 07:13:04;;;;;;;4.72;1.45;;;3.80;99.90;;;;;;5059941;28;20074;-70
2021/04/11 07:15:53;;;;;;;4.60;1.27;;;3.80;99.90;;;;;;5060269;28;20024;-71
2021/04/11 07:18:50;;;;;;;5.80;1.42;;;3.80;99.90;;;;;;5060178;28;20498;-71
2021/04/11 07:21:42;;;;;;;1.80;1.20;;;3.80;99.90;;;;;;5061738;28;20125;-71
2021/04/11 07:24:30;;;;;;;7.05;1.30;;;3.90;99.90;;;;;;5072549;28;20028;-72
2021/04/11 07:27:27;;;;;;;5.97;1.77;;;4.00;99.90;;;;;;5072811;28;20054;-71
2021/04/11 07:30:00;;;;;;;4.03;1.20;;;4.10;99.90;;;;;;5072378;28;20428;-72
2021/04/11 07:32:39;;;;;;;3.90;1.10;;;4.30;99.90;;;;;;5073012;28;20024;-71
2021/04/11 07:35:13;;;;;;;6.65;2.22;;;4.40;99.90;;;;;;5060595;28;20492;-72
2021/04/11 07:38:15;;;;;;;2.55;1.88;;;4.50;99.90;;;;;;5071209;28;20025;-72
2021/04/11 07:41:09;;;;;;;7.85;1.48;;;4.50;99.90;;;;;;5065316;28;20060;-71
2021/04/11 07:44:08;;;;;;;2.30;1.30;;;4.50;99.90;;;;;;5064590;28;20027;-71
2021/04/11 07:47:08;;;;;;;4.97;1.55;;;4.50;99.90;;;;;;5060159;28;20028;-70
2021/04/11 07:49:55;;;;;;;3.33;1.20;;;4.50;99.90;;;;;;5049566;28;20029;-71
2021/04/11 07:52:58;;;;;;;2.85;0.88;;;4.50;99.90;;;;;;5065082;28;20020;-72
2021/04/11 07:55:42;;;;;;;2.85;1.17;;;4.50;99.90;;;;;;5062323;28;20412;-71
2021/04/11 07:58:37;;;;;;;2.30;0.77;;;4.40;99.90;;;;;;5070572;28;20100;-70
2021/04/11 08:01:36;;;;;;;6.10;1.08;;;4.30;99.90;;;;;;5071743;28;20070;-71
2021/04/11 08:04:35;;;;;;;6.53;1.38;;;4.30;99.90;;;;;;5071396;28;20029;-72
2021/04/11 08:07:30;;;;;;;2.20;1.02;;;4.30;99.90;;;;;;5065361;28;20113;-70
2021/04/11 08:10:07;;;;;;;5.10;2.38;;;4.30;99.90;;;;;;5061006;28;20036;-71
2021/04/11 08:13:07;;;;;;;5.88;1.77;;;4.20;99.90;;;;;;5058005;28;20017;-70
2021/04/11 08:15:44;;;;;;;2.58;0.95;;;4.20;99.90;;;;;;5062701;28;20111;-70
2021/04/11 08:18:21;;;;;;;9.32;1.27;;;4.30;99.90;;;;;;5071712;28;20110;-70
2021/04/11 08:21:00;;;;;;;4.88;1.35;;;4.40;99.90;;;;;;5072094;28;20020;-70
2021/04/11 08:23:51;;;;;;;1.83;1.00;;;4.40;99.90;;;;;;5071598;28;20021;-73
2021/04/11 08:26:52;;;;;;;2.40;1.02;;;4.40;99.90;;;;;;5070783;28;20103;-69
2021/04/11 08:29:34;;;;;;;2.03;0.90;;;4.40;99.90;;;;;;5060978;28;20041;-69
2021/04/11 08:32:02;;;;;;;4.13;0.82;;;4.40;99.90;;;;;;5071115;28;20066;-69
2021/04/11 08:34:50;;;;;;;3.45;1.10;;;4.50;99.90;;;;;;5081858;28;20425;-69
2021/04/11 08:37:46;;;;;;;3.65;1.10;;;4.50;99.90;;;;;;5079223;28;20032;-70
2021/04/11 08:40:18;;;;;;;4.85;1.05;;;4.60;99.90;;;;;;5084127;28;20074;-70
2021/04/11 08:43:05;;;;;;;6.90;0.90;;;4.70;99.90;;;;;;5083044;28;20057;-70
2021/04/11 08:46:00;;;;;;;3.78;0.80;;;4.70;99.90;;;;;;5085683;28;20106;-71
2021/04/11 08:48:35;;;;;;;3.10;0.80;;;4.90;99.90;;;;;;5079986;28;20016;-71
2021/04/11 08:51:12;;;;;;;3.63;0.98;;;4.90;99.90;;;;;;5080721;28;20024;-70
2021/04/11 08:54:08;;;;;;;2.67;0.77;;;4.90;99.90;;;;;;5069126;28;20032;-70
2021/04/11 08:56:45;;;;;;;4.47;0.77;;;4.80;99.90;;;;;;5074259;28;20012;-69
2021/04/11 08:59:32;;;;;;;3.55;0.80;;;4.90;99.90;;;;;;5084951;28;20041;-71
2021/04/11 09:02:23;;;;;;;3.05;0.90;;;5.00;99.90;;;;;;5087063;28;20028;-70
2021/04/11 09:05:25;;;;;;;2.20;0.75;;;5.10;99.90;;;;;;5089822;28;20028;-71
2021/04/11 09:08:21;;;;;;;1.17;0.50;;;5.20;99.90;;;;;;5080918;28;20037;-70
2021/04/11 09:11:07;;;;;;;2.50;0.90;;;5.30;99.90;;;;;;5086782;28;20059;-71
2021/04/11 09:13:57;;;;;;;2.28;0.90;;;5.30;99.90;;;;;;5087721;28;20066;-70
2021/04/11 09:16:52;;;;;;;1.70;0.75;;;5.40;99.90;;;;;;5092318;28;20019;-71
2021/04/11 09:19:42;;;;;;;2.70;0.73;;;5.60;99.90;;;;;;5077623;28;20064;-71
2021/04/11 09:22:55;;;;;;;2.53;0.93;;;5.80;99.90;;;;;;5089469;28;20075;-71
2021/04/11 09:25:24;;;;;;;4.70;0.90;;;6.00;99.90;;;;;;5076441;28;20039;-70
2021/04/11 09:27:58;;;;;;;1.23;0.90;;;6.10;99.90;;;;;;5085912;28;20054;-70
2021/04/11 09:30:48;;;;;;;5.00;1.10;;;6.10;99.90;;;;;;5090175;28;20043;-71
2021/04/11 09:33:38;;;;;;;3.80;0.90;;;6.10;99.90;;;;;;5072471;28;20024;-71
2021/04/11 09:36:16;;;;;;;4.18;0.82;;;6.20;99.90;;;;;;5069823;28;20025;-71
2021/04/11 09:39:06;;;;;;;2.92;1.13;;;6.20;99.90;;;;;;5075090;28;20021;-70
2021/04/11 09:42:09;;;;;;;4.70;0.77;;;6.00;99.90;;;;;;5073458;28;20039;-70
2021/04/11 09:44:48;;;;;;;3.05;0.82;;;6.10;99.90;;;;;;5071272;28;20029;-72
2021/04/11 09:47:49;;;;;;;1.08;0.70;;;6.20;99.90;;;;;;5069511;28;20029;-71
2021/04/11 09:50:31;;;;;;;2.47;0.73;;;6.10;99.90;;;;;;5069928;28;20040;-71
2021/04/11 09:53:40;;;;;;;5.10;0.60;;;7.00;99.90;;;;;;5064645;28;20032;-71
2021/04/11 09:56:26;;;;;;;1.13;0.50;;;6.00;99.90;;;;;;5070065;28;20031;-70
2021/04/11 09:59:08;;;;;;;1.40;0.80;;;6.00;99.90;;;;;;5069872;28;20017;-71
2021/04/11 10:01:53;;;;;;;4.50;1.50;;;6.10;99.90;;;;;;5069102;28;20025;-71
2021/04/11 10:04:56;;;;;;;1.95;1.00;;;6.10;99.90;;;;;;5075227;28;20455;-71
2021/04/11 10:07:36;;;;;;;3.50;1.00;;;6.00;99.90;;;;;;5083613;28;20036;-71
2021/04/11 10:10:25;;;;;;;6.70;1.85;;;5.90;99.90;;;;;;5072809;28;20035;-71
2021/04/11 10:13:19;;;;;;;2.90;0.90;;;6.10;99.90;;;;;;5060297;28;20149;-71
2021/04/11 10:16:16;;;;;;;3.30;1.73;;;6.10;99.90;;;;;;5071365;28;20384;-72
2021/04/11 10:19:09;;;;;;;4.40;1.38;;;6.00;99.90;;;;;;5076383;28;20074;-72
2021/04/11 10:21:58;;;;;;;1.42;1.08;;;6.00;99.90;;;;;;5073846;28;20021;-72
2021/04/11 10:24:32;;;;;;;2.83;1.30;;;6.00;99.90;;;;;;5075485;28;20093;-70
2021/04/11 10:27:30;;;;;;;2.17;1.00;;;6.00;99.90;;;;;;5052335;28;20048;-71
2021/04/11 10:29:58;;;;;;;8.65;1.23;;;6.20;99.90;;;;;;5073791;28;20404;-71
2021/04/11 10:32:47;;;;;;;4.97;0.95;;;6.20;99.90;;;;;;5063939;28;20028;-70
2021/04/11 10:35:38;;;;;;;1.92;0.50;;;6.30;99.90;;;;;;5069355;28;20369;-72
2021/04/11 10:38:10;;;;;;;2.80;0.77;;;6.40;99.90;;;;;;5072661;28;20047;-71
2021/04/11 10:41:09;;;;;;;2.97;0.52;;;6.40;99.90;;;;;;5072795;28;20020;-71
2021/04/11 10:43:48;;;;;;;2.10;0.70;;;6.40;99.90;;;;;;5073208;28;20035;-70
2021/04/11 10:46:35;;;;;;;7.53;0.77;;;6.40;99.90;;;;;;5071191;28;20545;-71
2021/04/11 10:49:18;;;;;;;2.67;0.28;;;6.40;99.90;;;;;;5073034;28;20488;-71
2021/04/11 10:52:16;;;;;;;2.17;0.80;;;6.20;99.90;;;;;;5062305;28;20086;-72
2021/04/11 10:54:49;;;;;;;5.03;0.73;;;6.30;99.90;;;;;;5072706;28;20540;-72
2021/04/11 10:57:25;;;;;;;1.85;0.50;;;6.40;99.90;;;;;;5082016;28;20043;-71
2021/04/11 11:00:15;;;;;;;0.55;0.35;;;6.40;99.90;;;;;;5073488;28;20453;-72
2021/04/11 11:02:58;;;;;;;2.47;0.60;;;6.50;99.90;;;;;;5069563;28;20044;-71
2021/04/11 11:05:39;;;;;;;1.65;0.93;;;6.60;99.90;;;;;;5063975;28;20028;-72
2021/04/11 11:08:28;;;;;;;2.35;0.50;;;6.70;99.90;;;;;;5070784;28;20068;-71
2021/04/11 11:11:09;;;;;;;1.33;0.65;;;6.80;99.90;;;;;;5066465;28;20072;-72
2021/04/11 11:14:12;;;;;;;0.88;0.80;;;6.90;99.90;;;;;;5060998;28;20051;-72
2021/04/11 11:17:15;;;;;;;7.03;1.27;;;7.00;99.90;;;;;;5071632;28;20473;-72
2021/04/11 11:20:05;;;;;;;5.82;0.70;;;7.00;99.90;;;;;;5067015;28;20024;-72
2021/04/11 11:22:36;;;;;;;1.10;0.93;;;7.10;99.90;;;;;;5066590;28;20051;-71
2021/04/11 11:25:30;;;;;;;6.25;0.65;;;7.30;99.90;;;;;;5070263;28;20032;-72
2021/04/11 11:28:05;;;;;;;1.98;0.60;;;7.40;99.90;;;;;;5050281;28;20573;-72
2021/04/11 11:30:41;;;;;;;1.20;0.60;;;7.60;99.90;;;;;;5062637;28;20538;-72
2021/04/11 11:33:21;;;;;;;2.45;0.80;;;7.50;99.90;;;;;;5071590;28;20067;-71
2021/04/11 11:36:17;;;;;;;1.65;0.63;;;7.50;99.90;;;;;;5067917;28;20024;-71
2021/04/11 11:39:17;;;;;;;2.15;0.73;;;7.50;99.90;;;;;;5069840;28;20029;-72
2021/04/11 11:42:07;;;;;;;0.95;0.60;;;7.50;99.90;;;;;;5065138;28;20099;-72
2021/04/11 11:44:40;;;;;;;5.00;0.75;;;7.60;99.90;;;;;;5060746;28;20024;-71
2021/04/11 11:47:15;;;;;;;0.68;0.40;;;7.60;99.90;;;;;;5071772;28;20050;-71
2021/04/11 11:50:22;;;;;;;2.55;0.70;;;7.70;99.90;;;;;;5070948;28;20040;-72
2021/04/11 11:52:56;;;;;;;4.28;0.60;;;7.70;99.90;;;;;;5071047;28;20422;-71
2021/04/11 11:55:23;;;;;;;2.00;0.80;;;7.70;99.90;;;;;;5071738;28;20480;-72
2021/04/11 11:57:57;;;;;;;2.97;0.60;;;7.70;99.90;;;;;;5070962;28;20032;-72
2021/04/11 12:00:37;;;;;;;1.90;0.60;;;7.60;99.90;;;;;;5071914;28;20055;-72
2021/04/11 12:03:08;;;;;;;0.45;0.40;;;7.50;99.90;;;;;;5071652;28;20017;-73
2021/04/11 12:05:50;;;;;;;2.03;0.60;;;7.50;99.90;;;;;;5072404;28;20025;-72
2021/04/11 12:08:46;;;;;;;4.53;1.40;;;7.50;99.90;;;;;;5071627;28;20123;-72
2021/04/11 12:11:23;;;;;;;3.88;0.55;;;7.60;99.90;;;;;;5071195;28;20033;-72
2021/04/11 12:14:10;;;;;;;3.80;0.38;;;7.70;99.90;;;;;;5059416;28;20041;-72
2021/04/11 12:16:39;;;;;;;1.40;0.50;;;7.70;99.90;;;;;;5061980;28;20037;-71
2021/04/11 12:19:29;;;;;;;1.50;0.40;;;8.00;99.90;;;;;;5065910;28;20074;-72
2021/04/11 12:22:18;;;;;;;1.25;0.52;;;8.20;99.90;;;;;;5061146;28;20029;-72
2021/04/11 12:25:04;;;;;;;3.05;0.50;;;8.30;99.90;;;;;;5053756;28;20436;-72
2021/04/11 12:27:37;;;;;;;1.65;0.57;;;8.20;99.90;;;;;;5061802;28;20030;-72
2021/04/11 12:30:06;;;;;;;2.25;0.65;;;8.00;99.90;;;;;;5066433;28;20600;-73
2021/04/11 12:32:51;;;;;;;1.27;0.55;;;7.90;99.90;;;;;;5071234;28;20020;-73
2021/04/11 12:35:21;;;;;;;3.75;0.50;;;7.90;99.90;;;;;;5057446;28;20044;-73
2021/04/11 12:38:16;;;;;;;3.50;0.60;;;8.00;99.90;;;;;;5071625;28;20111;-73
2021/04/11 12:40:50;;;;;;;2.55;0.60;;;8.20;99.90;;;;;;5071374;28;20075;-74
2021/04/11 12:43:22;;;;;;;4.97;3.38;;;8.20;99.90;;;;;;5070881;28;20020;-73
2021/04/11 12:46:09;;;;;;;3.22;1.58;;;8.50;99.90;;;;;;5070124;28;20059;-72
2021/04/11 12:48:48;;;;;;;3.00;0.50;;;8.50;99.90;;;;;;5061163;28;20025;-72
2021/04/11 12:51:36;;;;;;;1.35;0.47;;;8.60;99.90;;;;;;5068508;28;20107;-73
2021/04/11 12:54:30;;;;;;;2.63;1.45;;;8.40;99.90;;;;;;5029060;28;20391;-71
2021/04/11 12:57:03;;;;;;;3.13;1.05;;;8.00;99.90;;;;;;5071903;28;20103;-73
2021/04/11 12:59:50;;;;;;;4.97;0.60;;;7.90;99.90;;;;;;5071073;28;20030;-72
2021/04/11 13:02:22;;;;;;;0.93;0.60;;;7.80;99.90;;;;;;5071548;28;20068;-71
2021/04/11 13:04:56;;;;;;;8.40;4.43;;;7.70;99.90;;;;;;5071434;28;20107;-72
2021/04/11 13:07:29;;;;;;;2.78;1.00;;;7.70;99.90;;;;;;5070599;28;20136;-72
2021/04/11 13:10:28;;;;;;;5.53;1.33;;;7.80;99.90;;;;;;5071430;28;20039;-73
2021/04/11 13:13:05;;;;;;;3.72;0.80;;;7.80;99.90;;;;;;5071426;28;20476;-72
2021/04/11 13:15:50;;;;;;;3.97;0.73;;;7.80;99.90;;;;;;5070911;28;20380;-73
2021/04/11 13:18:31;;;;;;;8.93;3.47;;;7.80;99.90;;;;;;5071228;28;20020;-73
2021/04/11 13:21:30;;;;;;;27.25;11.70;;;7.70;99.90;;;;;;5065302;28;20391;-72
2021/04/11 13:24:14;;;;;;;6.47;1.50;;;7.60;99.90;;;;;;5061199;28;20103;-72
2021/04/11 13:26:58;;;;;;;6.60;2.42;;;7.50;99.90;;;;;;5070455;28;20112;-72
2021/04/11 13:30:04;;;;;;;122.28;19.55;;;7.70;99.90;;;;;;5070188;28;20376;-71
2021/04/11 13:32:38;;;;;;;17.50;2.83;;;7.90;99.90;;;;;;5062088;28;20560;-71
2021/04/11 13:35:26;;;;;;;37.53;6.72;;;8.30;99.90;;;;;;5075424;28;20127;-72
2021/04/11 13:37:56;;;;;;;82.50;16.52;;;8.30;99.40;;;;;;5086596;28;20029;-73
2021/04/11 13:40:25;;;;;;;1.50;0.50;;;8.20;99.90;;;;;;5083585;28;20089;-73
2021/04/11 13:43:20;;;;;;;2.83;1.60;;;8.00;99.90;;;;;;5090012;28;20081;-73
2021/04/11 13:45:53;;;;;;;2.13;0.90;;;7.80;99.90;;;;;;5049659;28;20031;-73
2021/04/11 13:48:37;;;;;;;3.38;0.73;;;7.80;99.90;;;;;;5088347;28;20035;-73
2021/04/11 13:51:19;;;;;;;3.25;0.60;;;8.30;99.90;;;;;;5089316;28;20020;-73
2021/04/11 13:54:02;;;;;;;2.47;1.08;;;8.60;99.90;;;;;;5083838;28;20116;-73
2021/04/11 13:56:47;;;;;;;4.38;1.23;;;8.70;99.90;;;;;;5084502;28;20012;-73
2021/04/11 13:59:29;;;;;;;3.03;0.80;;;8.90;99.90;;;;;;5082396;28;20032;-72
2021/04/11 14:02:02;;;;;;;2.00;1.60;;;9.30;99.90;;;;;;5089814;28;20077;-73
2021/04/11 14:04:43;;;;;;;1.77;0.95;;;9.60;99.90;;;;;;5084117;28;20027;-73